createdAt,value
2018-12-18T00:01:51.714Z,99227.73
2018-12-18T00:05:57.860Z,99229.83
2018-12-18T00:10:01.944Z,99230.02
2018-12-18T00:14:06.984Z,99231.44
2018-12-18T00:18:11.073Z,99232.41
2018-12-18T00:22:15.173Z,99230.03
2018-12-18T00:26:19.326Z,99222.43
2018-12-18T00:30:23.415Z,99220.17
2018-12-18T00:34:27.537Z,99217.53
2018-12-18T00:38:31.666Z,99224.36
2018-12-18T00:42:35.746Z,99217.22
2018-12-18T00:46:39.825Z,99222.80
2018-12-18T00:50:43.923Z,99222.37
2018-12-18T00:54:48.054Z,99226.20
2018-12-18T00:58:52.141Z,99218.32
2018-12-18T01:02:56.312Z,99212.20
2018-12-18T01:07:01.170Z,99212.28
2018-12-18T01:11:05.252Z,99212.12
2018-12-18T01:15:09.477Z,99215.48
2018-12-18T01:19:14.638Z,99218.47
2018-12-18T01:23:18.721Z,99214.25
2018-12-18T01:27:22.822Z,99218.31
2018-12-18T01:31:26.935Z,99224.66
2018-12-18T01:35:31.073Z,99222.50
2018-12-18T01:39:35.154Z,99216.07
2018-12-18T01:43:39.235Z,99215.86
2018-12-18T01:47:43.310Z,99217.95
2018-12-18T01:51:47.403Z,99217.31
2018-12-18T01:55:51.494Z,99215.67
2018-12-18T01:59:55.573Z,99213.12
2018-12-18T02:04:05.938Z,99209.93
2018-12-18T02:08:06.770Z,99207.23
2018-12-18T02:12:10.857Z,99202.29
2018-12-18T02:16:14.949Z,99197.27
2018-12-18T02:20:19.068Z,99197.52
2018-12-18T02:24:24.237Z,99190.38
2018-12-18T02:28:28.353Z,99187.45
2018-12-18T02:32:32.449Z,99175.91
2018-12-18T02:36:36.632Z,99180.50
2018-12-18T02:40:40.662Z,99185.98
2018-12-18T02:44:44.815Z,99184.39
2018-12-18T02:48:48.898Z,99182.31
2018-12-18T02:52:52.988Z,99176.05
2018-12-18T02:56:57.088Z,99179.25
2018-12-18T03:01:01.177Z,99173.73
2018-12-18T03:05:06.529Z,99170.33
2018-12-18T03:09:10.650Z,99169.91
2018-12-18T03:13:14.784Z,99154.30
2018-12-18T03:17:18.850Z,99151.17
2018-12-18T03:21:22.945Z,99149.56
2018-12-18T03:25:27.094Z,99150.65
2018-12-18T03:33:48.211Z,99145.46
2018-12-18T03:37:52.513Z,99142.34
2018-12-18T03:41:56.746Z,99145.50
2018-12-18T03:46:00.855Z,99125.84
2018-12-18T03:50:06.513Z,99132.31
2018-12-18T03:54:10.607Z,99131.51
2018-12-18T03:58:14.722Z,99126.48
2018-12-18T04:02:18.879Z,99124.14
2018-12-18T04:06:22.970Z,99125.20
2018-12-18T04:10:27.086Z,99123.39
2018-12-18T04:14:31.170Z,99131.12
2018-12-18T04:18:35.274Z,99132.31
2018-12-18T04:22:39.434Z,99136.38
2018-12-18T04:26:43.518Z,99133.69
2018-12-18T04:30:47.611Z,99125.08
2018-12-18T04:34:51.755Z,99128.94
2018-12-18T04:38:55.880Z,99129.28
2018-12-18T04:42:59.972Z,99128.62
2018-12-18T04:47:04.223Z,99130.09
2018-12-18T04:51:08.324Z,99137.88
2018-12-18T04:55:12.474Z,99125.42
2018-12-18T04:59:16.553Z,99132.91
2018-12-18T05:03:20.668Z,99130.00
2018-12-18T05:07:24.745Z,99142.61
2018-12-18T05:11:28.934Z,99135.51
2018-12-18T05:15:33.091Z,99142.39
2018-12-18T05:19:37.173Z,99136.02
2018-12-18T05:23:41.256Z,99141.38
2018-12-18T05:27:45.344Z,99138.20
2018-12-18T05:31:49.475Z,99140.48
2018-12-18T05:35:54.169Z,99142.36
2018-12-18T05:39:58.250Z,99145.52
2018-12-18T05:44:02.394Z,99144.12
2018-12-18T05:48:06.505Z,99142.87
2018-12-18T05:52:10.622Z,99142.05
2018-12-18T05:56:14.726Z,99131.83
2018-12-18T06:00:18.810Z,99136.42
2018-12-18T06:04:22.920Z,99148.37
2018-12-18T06:08:28.082Z,99159.88
2018-12-18T06:12:32.774Z,99152.22
2018-12-18T06:16:36.849Z,99146.59
2018-12-18T06:20:40.933Z,99148.80
2018-12-18T06:24:45.117Z,99147.79
2018-12-18T06:28:49.172Z,99137.38
2018-12-18T06:32:53.321Z,99137.38
2018-12-18T06:36:57.407Z,99128.95
2018-12-18T06:41:01.516Z,99138.49
2018-12-18T06:45:07.281Z,99138.92
2018-12-18T06:49:11.373Z,99133.08
2018-12-18T06:53:15.514Z,99135.70
2018-12-18T06:57:19.600Z,99139.55
2018-12-18T07:01:23.677Z,99146.19
2018-12-18T07:05:27.778Z,99140.79
2018-12-18T07:09:31.826Z,99136.84
2018-12-18T07:13:35.911Z,99131.65
2018-12-18T07:17:40.005Z,99126.58
2018-12-18T07:21:44.072Z,99131.55
2018-12-18T07:25:48.388Z,99137.47
2018-12-18T07:29:52.446Z,99136.54
2018-12-18T07:33:56.528Z,99130.94
2018-12-18T07:38:00.593Z,99131.05
2018-12-18T07:42:04.697Z,99120.41
2018-12-18T07:46:08.804Z,99125.10
2018-12-18T07:50:13.025Z,99123.63
2018-12-18T07:54:17.141Z,99129.98
2018-12-18T07:58:21.313Z,99121.55
2018-12-18T08:02:25.597Z,99116.95
2018-12-18T08:06:29.719Z,99111.94
2018-12-18T08:10:33.812Z,99112.66
2018-12-18T08:14:38.916Z,99117.22
2018-12-18T08:18:43.093Z,99118.75
2018-12-18T08:22:47.282Z,99118.63
2018-12-18T08:26:51.455Z,99120.75
2018-12-18T08:30:55.541Z,99128.70
2018-12-18T08:34:59.621Z,99118.41
2018-12-18T08:39:06.253Z,99112.09
2018-12-18T08:43:11.389Z,99105.25
2018-12-18T08:47:15.493Z,99104.34
2018-12-18T08:51:19.575Z,99100.96
2018-12-18T08:55:23.699Z,99109.22
2018-12-18T08:59:27.829Z,99102.87
2018-12-18T09:03:31.916Z,99111.58
2018-12-18T09:07:36.053Z,99109.97
2018-12-18T09:11:40.265Z,99105.95
2018-12-18T09:15:50.737Z,99102.48
2018-12-18T09:19:54.801Z,99100.16
2018-12-18T09:23:58.881Z,99097.31
2018-12-18T09:28:03.021Z,99105.40
2018-12-18T09:32:07.101Z,99093.58
2018-12-18T09:36:11.265Z,99087.76
2018-12-18T09:44:42.241Z,99068.78
2018-12-18T09:48:46.345Z,99059.69
2018-12-18T09:52:50.440Z,99048.30
2018-12-18T09:56:54.510Z,99047.01
2018-12-18T10:00:58.661Z,99047.16
2018-12-18T10:05:02.752Z,99043.56
2018-12-18T10:09:09.710Z,99026.32
2018-12-18T10:13:13.665Z,99030.09
2018-12-18T10:17:17.782Z,99022.83
2018-12-18T10:21:21.867Z,98992.19
2018-12-18T10:25:26.213Z,98988.09
2018-12-18T10:29:30.315Z,98983.20
2018-12-18T10:33:34.478Z,98980.66
2018-12-18T10:37:38.571Z,98980.33
2018-12-18T10:41:42.665Z,98985.00
2018-12-18T10:45:46.839Z,98965.25
2018-12-18T10:49:51.155Z,98958.08
2018-12-18T10:53:55.256Z,98941.59
2018-12-18T10:57:59.340Z,98923.98
2018-12-18T11:02:04.183Z,98912.69
2018-12-18T11:06:09.988Z,98891.14
2018-12-18T11:10:14.607Z,98876.22
2018-12-18T11:14:19.245Z,98876.92
2018-12-18T11:18:23.405Z,98866.05
2018-12-18T11:22:27.507Z,98851.23
2018-12-18T11:26:31.597Z,98848.37
2018-12-18T11:30:35.733Z,98843.92
2018-12-18T11:34:39.909Z,98826.00
2018-12-18T11:38:44.034Z,98809.64
2018-12-18T11:42:48.120Z,98802.75
2018-12-18T11:46:52.213Z,98797.05
2018-12-18T11:50:57.302Z,98788.63
2018-12-18T11:55:01.442Z,98777.88
2018-12-18T11:59:05.554Z,98775.14
2018-12-18T12:03:09.650Z,98762.59
2018-12-18T12:07:15.747Z,98764.88
2018-12-18T12:11:19.881Z,98759.16
2018-12-18T12:15:23.996Z,98768.16
2018-12-18T12:19:28.122Z,98757.43
2018-12-18T12:23:32.237Z,98745.52
2018-12-18T12:32:12.756Z,98734.15
2018-12-18T12:36:16.939Z,98731.05
2018-12-18T12:40:21.040Z,98717.24
2018-12-18T12:44:25.134Z,98721.81
2018-12-18T12:52:53.834Z,98721.03
2018-12-18T12:56:58.198Z,98704.66
2018-12-18T13:01:02.391Z,98696.02
2018-12-18T13:09:27.270Z,98678.72
2018-12-18T13:13:31.364Z,98673.12
2018-12-18T13:17:35.477Z,98677.02
2018-12-18T13:21:39.549Z,98674.55
2018-12-18T13:25:43.629Z,98674.83
2018-12-18T13:29:48.034Z,98677.81
2018-12-18T13:33:52.117Z,98674.55
2018-12-18T13:37:56.217Z,98668.41
2018-12-18T13:42:00.325Z,98666.45
2018-12-18T13:46:04.470Z,98662.76
2018-12-18T13:50:08.579Z,98650.14
2018-12-18T13:54:12.766Z,98639.96
2018-12-18T13:58:16.849Z,98630.53
2018-12-18T14:02:21.672Z,98628.88
2018-12-18T14:06:25.829Z,98615.30
2018-12-18T14:10:29.905Z,98619.48
2018-12-18T14:14:34.057Z,98611.30
2018-12-18T14:18:38.310Z,98618.81
2018-12-18T14:22:42.382Z,98620.86
2018-12-18T14:26:46.453Z,98617.91
2018-12-18T14:30:50.521Z,98621.08
2018-12-18T14:34:54.608Z,98615.65
2018-12-18T14:38:58.695Z,98608.44
2018-12-18T14:43:02.758Z,98595.71
2018-12-18T14:47:06.997Z,98590.77
2018-12-18T14:51:11.082Z,98583.67
2018-12-18T14:55:15.243Z,98573.06
2018-12-18T14:59:19.401Z,98561.99
2018-12-18T15:03:23.463Z,98559.83
2018-12-18T15:07:27.564Z,98558.76
2018-12-18T15:11:31.657Z,98548.33
2018-12-18T15:15:35.783Z,98554.92
2018-12-18T15:19:39.910Z,98558.20
2018-12-18T15:23:44.597Z,98558.64
2018-12-18T15:27:48.673Z,98554.22
2018-12-18T15:31:53.857Z,98556.17
2018-12-18T15:35:58.306Z,98547.68
2018-12-18T15:40:02.388Z,98540.58
2018-12-18T15:44:07.561Z,98539.16
2018-12-18T15:48:11.639Z,98546.17
2018-12-18T15:52:15.736Z,98535.92
2018-12-18T15:56:19.877Z,98531.26
2018-12-18T16:00:23.965Z,98522.74
2018-12-18T16:04:28.050Z,98519.23
2018-12-18T16:08:32.152Z,98512.87
2018-12-18T16:12:36.238Z,98511.62
2018-12-18T16:16:40.294Z,98514.19
2018-12-18T16:20:44.381Z,98517.53
2018-12-18T16:24:48.450Z,98517.22
2018-12-18T16:28:52.636Z,98505.25
2018-12-18T16:32:56.705Z,98492.91
2018-12-18T16:37:00.777Z,98484.57
2018-12-18T16:41:04.873Z,98475.47
2018-12-18T16:45:08.989Z,98459.55
2018-12-18T16:49:13.074Z,98456.44
2018-12-18T16:53:17.206Z,98456.46
2018-12-18T16:57:23.762Z,98454.77
2018-12-18T17:01:51.330Z,98437.98
2018-12-18T17:05:56.303Z,98431.25
2018-12-18T17:10:01.192Z,98431.82
2018-12-18T17:14:05.263Z,98442.48
2018-12-18T17:18:10.228Z,98457.60
2018-12-18T17:26:53.266Z,98473.39
2018-12-18T17:30:59.080Z,98469.60
2018-12-18T17:35:03.239Z,98471.52
2018-12-18T17:39:07.850Z,98472.30
2018-12-18T17:43:11.931Z,98481.59
2018-12-18T17:47:16.045Z,98484.67
2018-12-18T17:51:20.213Z,98487.53
2018-12-18T17:55:47.760Z,98488.70
2018-12-18T17:59:53.724Z,98485.63
2018-12-18T18:03:57.797Z,98482.89
2018-12-18T18:08:02.466Z,98485.78
2018-12-18T18:12:07.273Z,98491.58
2018-12-18T18:16:11.361Z,98489.06
2018-12-18T18:20:15.617Z,98493.11
2018-12-18T18:24:19.725Z,98494.77
2018-12-18T18:28:23.817Z,98502.52
2018-12-18T18:41:54.845Z,98496.22
2018-12-18T18:50:48.948Z,98471.59
2018-12-18T18:59:48.593Z,98451.80
2018-12-18T19:08:48.275Z,98424.63
2018-12-18T19:17:48.099Z,98394.67
2018-12-18T19:26:47.830Z,98398.17
2018-12-18T19:35:47.226Z,98391.63
2018-12-18T19:48:49.026Z,98401.07
2018-12-18T19:57:48.803Z,98393.67
2018-12-18T20:06:48.449Z,98385.17
2018-12-18T20:15:48.302Z,98397.07
2018-12-18T20:24:07.126Z,98378.36
2018-12-18T20:32:50.554Z,98372.13
2018-12-18T20:36:54.618Z,98374.04
2018-12-18T20:40:58.770Z,98378.66
2018-12-18T20:45:03.130Z,98367.72
2018-12-18T20:53:48.645Z,98369.89
2018-12-18T20:57:53.710Z,98352.03
2018-12-18T21:01:57.967Z,98344.91
2018-12-18T21:14:50.143Z,98343.12
2018-12-18T21:18:54.259Z,98335.40
2018-12-18T21:22:58.348Z,98337.78
2018-12-18T21:27:02.438Z,98332.81
2018-12-18T21:31:06.518Z,98328.64
2018-12-18T21:35:10.635Z,98341.95
2018-12-18T21:43:49.929Z,98335.97
2018-12-18T21:47:54.009Z,98343.62
2018-12-18T21:51:58.201Z,98327.03
2018-12-18T21:56:02.338Z,98328.60
2018-12-18T22:00:09.513Z,98321.86
2018-12-18T22:04:13.590Z,98316.41
2018-12-18T22:08:17.922Z,98311.23
2018-12-18T22:12:22.016Z,98300.65
2018-12-18T22:16:26.106Z,98292.09
2018-12-18T22:20:30.169Z,98291.15
2018-12-18T22:24:34.237Z,98284.82
2018-12-18T22:28:38.339Z,98280.53
2018-12-18T22:32:42.594Z,98272.98
2018-12-18T22:36:46.728Z,98258.33
2018-12-18T22:40:50.816Z,98267.92
2018-12-18T22:49:48.159Z,98263.26
2018-12-18T22:53:52.249Z,98257.98
2018-12-18T22:57:56.433Z,98250.73
2018-12-18T23:06:48.162Z,98247.39
2018-12-18T23:15:19.218Z,98245.50
2018-12-18T23:19:47.054Z,98241.64
2018-12-18T23:28:06.017Z,98226.82
2018-12-18T23:32:10.148Z,98216.70
2018-12-18T23:36:14.373Z,98200.31
2018-12-18T23:44:50.183Z,98200.43
2018-12-18T23:48:54.262Z,98211.98
2018-12-18T23:57:48.455Z,98196.92
